Time;durP1;ratioP1;P1;durP2;ratioP2;P2;SDS_P1;SDS_P2;PMS_P1;PMS_P2;Temp;Humidity;BMP_temperature;BMP_pressure;BME280_temperature;BME280_humidity;BME280_pressure;Samples;Min_cycle;Max_cycle;Signal;HPM_P1;HPM_P2
2021/05/12 00:46:33;;;;;;;24.40;20.85;;;15.80;99.90;;;16.86;100.00;99350.59;4871533;28;80806;-63
2021/05/12 00:49:00;;;;;;;24.80;20.85;;;15.80;99.90;;;16.81;100.00;99355.81;4886736;28;76180;-63
2021/05/12 00:51:27;;;;;;;23.15;20.95;;;15.80;99.90;;;16.84;100.00;99363.50;4958820;28;71289;-63
2021/05/12 00:53:53;;;;;;;24.90;22.38;;;15.80;99.90;;;16.84;100.00;99354.56;4933443;28;95340;-63
2021/05/12 00:56:19;;;;;;;24.42;21.90;;;15.80;99.90;;;16.73;100.00;99364.22;4941255;28;78760;-63
2021/05/12 00:58:47;;;;;;;26.02;23.42;;;15.80;99.90;;;16.77;100.00;99360.03;4949209;28;71193;-64
2021/05/12 01:01:13;;;;;;;26.05;23.38;;;15.80;99.90;;;16.68;100.00;99363.25;4932444;28;78027;-65
2021/05/12 01:03:40;;;;;;;26.13;23.45;;;15.70;99.90;;;16.59;100.00;99373.44;4950792;28;74349;-64
2021/05/12 01:06:23;;;;;;;28.52;24.05;;;15.70;99.90;;;16.58;100.00;99371.78;4960475;28;75685;-64
2021/05/12 01:08:50;;;;;;;25.65;22.35;;;15.70;99.90;;;16.56;100.00;99371.19;4960156;28;52360;-64
2021/05/12 01:11:16;;;;;;;25.50;22.92;;;15.70;99.90;;;16.60;100.00;99380.50;4946409;28;54500;-65
2021/05/12 01:13:46;;;;;;;27.27;24.42;;;15.60;99.90;;;16.59;100.00;99369.91;4955579;28;66461;-64
2021/05/12 01:16:12;;;;;;;26.42;23.67;;;15.60;99.90;;;16.53;100.00;99372.44;4953125;28;51548;-64
2021/05/12 01:18:40;;;;;;;24.90;22.30;;;15.60;99.90;;;16.57;100.00;99372.81;4947260;28;42879;-64
2021/05/12 01:21:09;;;;;;;24.23;21.83;;;15.50;99.90;;;16.54;100.00;99381.38;4963470;28;53258;-63
2021/05/12 01:23:39;;;;;;;25.38;22.67;;;15.50;99.90;;;16.58;100.00;99384.44;4958745;28;48746;-64
2021/05/12 01:26:10;;;;;;;25.48;22.77;;;15.50;99.90;;;16.61;100.00;99384.03;4960373;28;48813;-63
2021/05/12 01:28:41;;;;;;;22.48;20.17;;;15.50;99.90;;;16.53;100.00;99377.84;4948441;28;68112;-63
2021/05/12 01:31:13;;;;;;;22.52;20.15;;;15.50;99.90;;;16.47;100.00;99381.41;4948268;28;63313;-63
2021/05/12 01:33:40;;;;;;;21.10;19.00;;;15.50;99.90;;;16.45;100.00;99377.28;4942226;28;57879;-63
2021/05/12 01:36:09;;;;;;;19.52;17.48;;;15.50;99.90;;;16.49;100.00;99373.09;4945375;28;69504;-65
2021/05/12 01:38:38;;;;;;;20.48;18.48;;;15.50;99.90;;;16.47;100.00;99376.00;4950073;28;59232;-64
2021/05/12 01:41:05;;;;;;;19.33;17.35;;;15.50;99.90;;;16.46;100.00;99377.06;4956946;28;58334;-64
2021/05/12 01:43:34;;;;;;;18.40;16.60;;;15.50;99.90;;;16.45;100.00;99383.50;4950969;28;81608;-63
2021/05/12 01:46:00;;;;;;;18.60;16.88;;;15.50;99.90;;;16.41;100.00;99379.59;4973009;28;50967;-63
2021/05/12 01:48:46;;;;;;;17.23;15.60;;;15.50;99.90;;;16.49;100.00;99387.44;4964808;28;90566;-63
2021/05/12 01:51:15;;;;;;;17.10;15.40;;;15.50;99.90;;;16.49;100.00;99381.19;4964408;28;86839;-63
2021/05/12 01:53:43;;;;;;;16.35;14.85;;;15.40;99.90;;;16.58;100.00;99384.44;4958449;28;87685;-63
2021/05/12 01:56:09;;;;;;;17.35;15.73;;;15.50;99.90;;;16.48;100.00;99388.47;4980746;28;74755;-63
2021/05/12 01:58:39;;;;;;;17.73;16.13;;;15.50;99.90;;;16.45;100.00;99383.50;4989171;28;57156;-63
2021/05/12 02:01:05;;;;;;;17.30;15.55;;;15.50;99.90;;;16.49;100.00;99379.31;4996505;28;57744;-63
2021/05/12 02:03:32;;;;;;;16.55;14.98;;;15.40;99.90;;;16.47;100.00;99389.50;4988964;28;57046;-64
2021/05/12 02:05:59;;;;;;;16.67;14.95;;;15.50;99.90;;;16.45;100.00;99378.09;4985512;28;61820;-63
2021/05/12 02:08:28;;;;;;;15.18;13.88;;;15.50;99.90;;;16.53;100.00;99375.16;4991815;28;42137;-63
2021/05/12 02:10:58;;;;;;;17.05;15.32;;;15.40;99.90;;;16.39;100.00;99362.78;4990534;28;49076;-63
2021/05/12 02:13:26;;;;;;;17.48;14.65;;;15.50;99.90;;;16.47;100.00;99375.19;4988374;28;47222;-63
2021/05/12 02:15:53;;;;;;;17.83;16.23;;;15.40;99.90;;;16.46;100.00;99370.81;4991852;28;50444;-64
2021/05/12 02:18:20;;;;;;;16.88;15.27;;;15.50;99.90;;;16.48;100.00;99366.88;4991317;28;46267;-64
2021/05/12 02:20:47;;;;;;;17.63;16.02;;;15.40;99.90;;;16.40;100.00;99372.53;5003552;28;47668;-64
2021/05/12 02:23:16;;;;;;;17.05;15.45;;;15.40;99.90;;;16.46;100.00;99376.22;4981730;28;70548;-63
2021/05/12 02:25:44;;;;;;;16.60;14.90;;;15.40;99.90;;;16.35;100.00;99377.75;4985362;28;59806;-63
2021/05/12 02:28:11;;;;;;;18.10;16.30;;;15.40;99.90;;;16.38;100.00;99380.03;4976230;28;64436;-64
2021/05/12 02:30:39;;;;;;;17.70;15.82;;;15.40;99.90;;;16.46;100.00;99378.94;4988536;28;46818;-64
2021/05/12 02:33:06;;;;;;;18.85;16.95;;;15.40;99.90;;;16.38;100.00;99384.59;4991746;28;43201;-63
2021/05/12 02:35:33;;;;;;;17.23;15.73;;;15.40;99.90;;;16.44;100.00;99387.25;4989971;28;44563;-63
2021/05/12 02:38:00;;;;;;;18.25;16.55;;;15.40;99.90;;;16.40;100.00;99386.03;4989512;28;54335;-62
2021/05/12 02:40:27;;;;;;;18.23;16.67;;;15.40;99.90;;;16.33;100.00;99384.41;4985791;28;45047;-64
2021/05/12 02:42:57;;;;;;;19.00;17.15;;;15.40;99.90;;;16.41;100.00;99385.00;4983478;28;52963;-63
2021/05/12 02:45:24;;;;;;;18.83;16.98;;;15.40;99.90;;;16.32;100.00;99380.88;4989649;28;48831;-63
2021/05/12 02:47:57;;;;;;;19.27;17.38;;;15.40;99.90;;;16.37;100.00;99380.25;4985191;28;49870;-62
2021/05/12 02:50:26;;;;;;;19.30;17.38;;;15.30;99.90;;;16.33;100.00;99379.84;4987235;28;49309;-63
2021/05/12 02:52:53;;;;;;;19.40;17.70;;;15.30;99.90;;;16.34;100.00;99394.16;4981643;28;53210;-63
2021/05/12 02:55:20;;;;;;;18.75;17.13;;;15.30;99.90;;;16.32;100.00;99393.56;4988232;28;53180;-63
2021/05/12 02:57:47;;;;;;;19.10;17.33;;;15.30;99.90;;;16.30;100.00;99398.38;4987664;28;46431;-63
2021/05/12 03:00:16;;;;;;;20.13;18.23;;;15.30;99.90;;;16.29;100.00;99404.81;4983951;28;55491;-63
2021/05/12 03:02:43;;;;;;;20.40;18.60;;;15.30;99.90;;;16.26;100.00;99406.06;4980293;28;50278;-63
2021/05/12 03:05:22;;;;;;;20.55;18.65;;;15.30;99.90;;;16.26;100.00;99397.13;4983151;28;47983;-62
2021/05/12 03:07:49;;;;;;;22.45;20.40;;;15.30;99.90;;;16.26;100.00;99400.66;4980985;28;50990;-64
2021/05/12 03:10:19;;;;;;;21.08;19.17;;;15.30;99.90;;;16.27;100.00;99413.13;4984759;28;53175;-64
2021/05/12 03:12:46;;;;;;;20.83;18.83;;;15.30;99.90;;;16.32;100.00;99420.56;4979612;28;56918;-63
2021/05/12 03:15:17;;;;;;;22.02;19.88;;;15.30;99.90;;;16.26;100.00;99413.31;4980062;28;56093;-62
2021/05/12 03:17:45;;;;;;;21.40;19.40;;;15.30;99.90;;;16.30;100.00;99428.06;4982263;28;54918;-62
2021/05/12 03:20:13;;;;;;;21.70;19.48;;;15.30;99.90;;;16.30;100.00;99433.47;4979317;28;53475;-63
2021/05/12 03:22:39;;;;;;;21.98;19.67;;;15.30;99.90;;;16.22;100.00;99429.13;4977624;28;53253;-63
2021/05/12 03:25:07;;;;;;;23.55;21.00;;;15.30;99.90;;;16.26;100.00;99432.22;4975848;28;64680;-62
2021/05/12 03:27:33;;;;;;;21.95;19.73;;;15.30;99.90;;;16.22;100.00;99439.91;4974432;28;58861;-63
2021/05/12 03:30:00;;;;;;;23.67;21.15;;;15.30;99.90;;;16.16;100.00;99432.69;4978610;28;57155;-63
2021/05/12 03:32:27;;;;;;;23.10;20.83;;;15.30;99.90;;;16.21;100.00;99432.84;4979087;28;59404;-63
2021/05/12 03:34:54;;;;;;;22.30;20.15;;;15.30;99.90;;;16.16;100.00;99432.69;4980243;28;53079;-63
2021/05/12 03:37:21;;;;;;;23.27;20.67;;;15.30;99.90;;;16.25;100.00;99439.50;4985005;28;46019;-62
2021/05/12 03:39:47;;;;;;;23.88;21.58;;;15.20;99.90;;;16.15;100.00;99428.34;4980286;28;55177;-63
2021/05/12 03:42:15;;;;;;;21.95;19.73;;;15.20;99.90;;;16.08;100.00;99427.53;4977797;28;55754;-62
2021/05/12 03:44:41;;;;;;;23.98;21.48;;;15.20;99.90;;;16.09;100.00;99429.19;4979112;28;51798;-63
2021/05/12 03:47:08;;;;;;;23.48;21.33;;;15.20;99.90;;;16.08;100.00;99439.13;4979910;28;56799;-63
2021/05/12 03:49:35;;;;;;;24.38;21.88;;;15.20;99.90;;;16.16;100.00;99444.31;4986996;28;48976;-63
2021/05/12 03:52:01;;;;;;;23.63;21.30;;;15.20;99.90;;;16.24;100.00;99442.41;4991267;28;45256;-64
2021/05/12 03:54:30;;;;;;;23.38;20.98;;;15.20;99.90;;;16.30;100.00;99441.56;4989699;28;48873;-63
2021/05/12 03:57:02;;;;;;;24.20;21.77;;;15.20;99.90;;;16.28;100.00;99449.88;4986795;28;43366;-62
2021/05/12 03:59:44;;;;;;;23.92;21.45;;;15.20;99.90;;;16.35;100.00;99445.25;4990037;28;45156;-63
2021/05/12 04:02:10;;;;;;;26.67;22.17;;;15.30;99.90;;;16.30;100.00;99453.19;4987145;28;52339;-62
2021/05/12 04:04:37;;;;;;;24.52;21.80;;;15.30;99.90;;;16.32;100.00;99458.38;4969009;28;57408;-63
2021/05/12 04:07:04;;;;;;;24.27;21.77;;;15.30;99.90;;;16.33;100.00;99458.13;4985829;28;50295;-63
2021/05/12 04:09:30;;;;;;;24.50;21.45;;;15.30;99.90;;;16.31;100.00;99452.13;4987221;28;52579;-63
2021/05/12 04:11:57;;;;;;;24.02;21.45;;;15.30;99.90;;;16.38;100.00;99454.78;4989887;28;47491;-62
2021/05/12 04:14:23;;;;;;;21.73;19.48;;;15.30;99.90;;;16.29;100.00;99446.13;4985277;28;50916;-62
2021/05/12 04:16:52;;;;;;;22.48;20.17;;;15.40;99.90;;;16.33;100.00;99444.63;4985420;28;53244;-63
2021/05/12 04:19:18;;;;;;;23.30;20.83;;;15.40;99.90;;;16.28;100.00;99447.16;4984567;28;49661;-63
2021/05/12 04:21:45;;;;;;;23.08;20.70;;;15.40;99.90;;;16.28;100.00;99452.56;4985564;28;46287;-62
2021/05/12 04:24:12;;;;;;;24.08;21.67;;;15.40;99.90;;;16.27;100.00;99450.91;4981811;28;52687;-64
2021/05/12 04:26:39;;;;;;;22.60;20.20;;;15.40;99.90;;;16.38;100.00;99450.22;4983204;28;55626;-63
2021/05/12 04:29:06;;;;;;;22.42;20.23;;;15.40;99.90;;;16.26;100.00;99454.66;4983009;28;54157;-63
2021/05/12 04:31:33;;;;;;;23.88;21.23;;;15.40;99.90;;;16.19;100.00;99461.13;4985655;28;47658;-62
2021/05/12 04:34:03;;;;;;;23.30;20.92;;;15.40;99.90;;;16.21;100.00;99457.16;4987628;28;47014;-62
2021/05/12 04:36:30;;;;;;;25.55;21.58;;;15.40;99.90;;;16.20;100.00;99471.69;4989331;28;46062;-63
2021/05/12 04:38:57;;;;;;;26.00;23.38;;;15.30;99.90;;;16.23;100.00;99468.56;4980834;28;56080;-62
2021/05/12 04:41:24;;;;;;;24.55;22.05;;;15.30;99.90;;;16.08;100.00;99476.91;4983326;28;59090;-63
2021/05/12 04:43:52;;;;;;;25.13;22.42;;;15.30;99.90;;;16.09;100.00;99477.75;4985628;28;50666;-63
2021/05/12 04:46:18;;;;;;;24.75;22.10;;;15.30;99.90;;;16.07;100.00;99480.66;4983721;28;46244;-64
2021/05/12 04:48:45;;;;;;;24.60;21.30;;;15.20;99.90;;;16.08;100.00;99492.28;4982951;28;52863;-63
2021/05/12 04:51:11;;;;;;;23.15;20.88;;;15.20;99.90;;;16.08;100.00;99492.28;4986041;28;46973;-63
2021/05/12 04:53:38;;;;;;;24.75;22.25;;;15.10;99.90;;;16.13;100.00;99489.78;4988192;28;42454;-62
2021/05/12 04:56:05;;;;;;;23.63;21.20;;;15.20;99.90;;;16.14;100.00;99491.44;4984120;28;44214;-64
2021/05/12 04:58:39;;;;;;;22.25;20.13;;;15.10;99.90;;;16.20;100.00;99489.75;4984016;28;53564;-63
2021/05/12 05:01:06;;;;;;;21.90;19.60;;;15.10;99.90;;;16.17;100.00;99496.44;4990298;28;53245;-63
2021/05/12 05:03:34;;;;;;;21.35;19.15;;;15.20;99.90;;;16.27;100.00;99496.78;4989246;28;40442;-63
2021/05/12 05:06:07;;;;;;;23.20;20.70;;;15.20;99.90;;;16.26;100.00;99503.22;4989466;28;39791;-62
2021/05/12 05:08:33;;;;;;;22.02;19.85;;;15.20;99.90;;;16.34;100.00;99502.16;4977912;28;52190;-62
2021/05/12 05:11:00;;;;;;;21.85;19.55;;;15.20;99.90;;;16.36;100.00;99497.38;4985811;28;42854;-63
2021/05/12 05:13:27;;;;;;;20.27;18.30;;;15.20;99.90;;;16.29;100.00;99488.50;4985559;28;52859;-63
2021/05/12 05:15:53;;;;;;;21.67;19.50;;;15.30;99.90;;;16.24;100.00;99482.88;4986775;28;42876;-62
2021/05/12 05:18:23;;;;;;;22.17;19.42;;;15.20;99.90;;;16.22;100.00;99482.28;4988191;28;44914;-63
2021/05/12 05:20:49;;;;;;;21.23;19.02;;;15.30;99.90;;;16.31;100.00;99486.41;4981759;28;47928;-64
2021/05/12 05:23:16;;;;;;;21.88;19.77;;;15.30;99.90;;;16.23;100.00;99484.75;4977411;28;52961;-64
2021/05/12 05:25:42;;;;;;;21.65;19.42;;;15.30;99.90;;;16.28;100.00;99493.06;4982154;28;50707;-63
2021/05/12 05:28:08;;;;;;;21.70;19.50;;;15.30;99.90;;;16.12;100.00;99498.91;4983192;28;46089;-63
2021/05/12 05:30:36;;;;;;;19.23;17.23;;;15.30;99.90;;;16.19;100.00;99510.53;4985801;28;47406;-63
2021/05/12 05:33:21;;;;;;;21.33;19.25;;;15.40;99.90;;;16.27;100.00;99512.16;4987998;28;43552;-64
2021/05/12 05:36:07;;;;;;;21.27;19.13;;;15.40;99.90;;;16.19;100.00;99515.94;4986736;28;43784;-64
2021/05/12 05:38:52;;;;;;;21.27;18.45;;;15.40;99.90;;;16.21;100.00;99521.94;4993892;28;33775;-63
2021/05/12 05:41:44;;;;;;;20.33;18.23;;;15.40;99.90;;;16.17;100.00;99518.00;4966557;28;40690;-63
2021/05/12 05:44:29;;;;;;;20.42;18.42;;;15.30;99.90;;;16.22;100.00;99515.50;4996316;28;37068;-63
2021/05/12 05:47:16;;;;;;;19.35;17.20;;;15.40;99.90;;;16.14;100.00;99513.88;4990798;28;41937;-63
2021/05/12 05:50:02;;;;;;;21.25;16.98;;;15.40;99.90;;;16.10;100.00;99527.97;4990968;28;36288;-62
2021/05/12 05:52:47;;;;;;;17.83;15.80;;;15.40;99.90;;;15.99;100.00;99528.63;4995227;28;36229;-63
2021/05/12 05:55:32;;;;;;;17.95;15.13;;;15.30;99.90;;;16.07;100.00;99525.72;4993235;28;34372;-63
2021/05/12 05:58:18;;;;;;;18.10;15.82;;;15.30;99.90;;;16.00;100.00;99527.59;4996282;28;36357;-62
2021/05/12 06:01:03;;;;;;;17.05;15.35;;;15.30;99.90;;;16.01;100.00;99532.78;4997159;28;38596;-62
2021/05/12 06:03:31;;;;;;;17.75;15.93;;;15.20;99.90;;;15.77;100.00;99534.28;4993776;28;40363;-64
2021/05/12 06:06:16;;;;;;;18.50;16.73;;;15.20;99.90;;;15.79;100.00;99539.50;4995395;28;31537;-63
2021/05/12 06:09:02;;;;;;;18.88;16.98;;;15.10;99.90;;;15.86;100.00;99539.47;4993245;28;41170;-63
2021/05/12 06:11:47;;;;;;;18.08;16.25;;;15.00;99.90;;;15.85;100.00;99540.50;4997166;28;31623;-62
2021/05/12 06:14:49;;;;;;;21.30;16.73;;;15.00;99.90;;;15.78;100.00;99546.75;4921594;28;21048;-62
2021/05/12 06:17:34;;;;;;;22.50;17.77;;;14.90;99.90;;;15.71;100.00;99551.31;4996178;28;21855;-62
2021/05/12 06:20:23;;;;;;;19.42;17.52;;;14.80;99.90;;;15.74;100.00;99550.06;4997759;28;26889;-62
2021/05/12 06:23:08;;;;;;;20.20;18.10;;;14.80;99.90;;;15.79;100.00;99548.41;5001746;28;24292;-62
2021/05/12 06:25:54;;;;;;;20.17;18.17;;;14.80;99.90;;;15.77;100.00;99547.78;4997962;28;24218;-63
2021/05/12 06:45:59;;;;;;;21.60;18.67;;;14.90;99.90;;;15.89;100.00;99534.47;4995059;28;39507;-62
2021/05/12 08:30:23;;;;;;;19.77;17.70;;;16.00;99.90;;;16.44;100.00;99475.53;4885484;28;44815;-63
2021/05/12 08:33:33;;;;;;;19.50;17.48;;;16.10;99.90;;;16.85;100.00;99472.41;4962476;28;41526;-63
2021/05/12 08:52:46;;;;;;;14.43;13.02;;;17.40;99.90;;;17.84;100.00;99475.09;4978265;28;45274;-64
2021/05/12 10:36:00;;;;;;;10.30;9.32;;;18.00;99.90;;;17.92;100.00;99503.75;4869371;28;60203;-61
2021/05/12 11:47:13;;;;;;;12.90;11.43;;;17.60;99.90;;;17.81;100.00;99512.59;4935029;28;49403;-62
2021/05/12 13:22:13;;;;;;;19.13;17.23;;;15.10;99.90;;;15.45;100.00;99554.81;4800340;29;57681;-67
2021/05/12 15:17:50;;;;;;;23.43;20.77;;;14.10;99.90;;;15.25;100.00;99547.75;4788833;29;47258;-63
2021/05/12 15:36:48;;;;;;;24.13;21.13;;;14.00;99.90;;;15.00;100.00;99523.28;4865495;28;43449;-61
2021/05/12 16:12:52;;;;;;;19.33;16.87;;;14.30;99.90;;;15.31;100.00;99506.50;4832268;29;42325;-63
2021/05/12 16:52:12;;;;;;;12.73;11.43;;;14.30;99.90;;;15.27;100.00;99535.75;4914267;28;40265;-60
2021/05/12 17:35:08;;;;;;;12.03;10.87;;;14.20;99.90;;;15.23;100.00;99512.91;4874378;28;30696;-63
2021/05/12 17:38:20;;;;;;;12.57;11.27;;;14.20;99.90;;;15.23;100.00;99512.09;4933072;28;23623;-63
2021/05/12 17:49:49;;;;;;;13.07;11.17;;;14.30;99.90;;;15.23;100.00;99534.47;4910542;28;28151;-63
2021/05/12 19:01:22;;;;;;;15.17;13.50;;;13.70;99.90;;;14.56;100.00;99577.66;4906865;28;31052;-63
2021/05/12 19:44:48;;;;;;;14.50;12.97;;;13.50;99.90;;;14.41;100.00;99564.31;4849535;29;39223;-63
2021/05/12 20:42:37;;;;;;;21.07;18.83;;;13.30;99.90;;;14.28;100.00;99521.16;4797395;29;38680;-60
2021/05/12 21:50:08;;;;;;;16.83;13.70;;;13.20;99.90;;;14.13;100.00;99512.41;4835353;29;30815;-62
2021/05/12 21:53:37;;;;;;;14.60;13.10;;;13.20;99.90;;;14.09;100.00;99505.78;4850297;29;30699;-61
